Камери на живо
METAR for:LBPD (Plovdiv Arpt, PL, BG)
Text:LBPD 201000Z AUTO 06003KT 030V100 9999 NCD 03/M05 Q1021 NOSIG
Temperature: 3.0°C ( 37°F)
Dewpoint: -5.0°C ( 23°F) [RH = 56%]
Pressure (altimeter):30.15 inches Hg (1021.0 mb)
Winds:from the ENE (60 degrees) at 3 MPH (3 knots; 1.5 m/s)
Visibility:6 or more sm (10+ km)
Ceiling:at least 12,000 feet AGL
Clouds:sky clear below 12,000 feet AGL

TAF for:LBPD (Plovdiv Arpt, PL, BG) issued at 0500 UTC 20 Jan 2022
Text:TAF LBPD 200500Z 2006/2106 VRB04KT CAVOK
Forecast period:0600 UTC 20 January 2022 to 0600 UTC 21 January 2022
Forecast type:FROM: standard forecast or significant change
Winds:variable direction winds at 5 MPH (4 knots; 2.1 m/s)
Visibility:6 or more sm (10+ km)
Clouds:missing
Weather:NSW (no significant weather)